createdAt,value
2018-07-09T00:01:32.384Z,1.70
2018-07-09T00:06:35.380Z,1.97
2018-07-09T00:11:38.393Z,1.63
2018-07-09T00:16:41.404Z,2.63
2018-07-09T00:21:44.528Z,2.60
2018-07-09T00:26:47.601Z,2.27
2018-07-09T00:31:50.884Z,2.20
2018-07-09T00:36:53.932Z,2.27
2018-07-09T00:41:56.994Z,2.40
2018-07-09T00:47:00.015Z,2.00
2018-07-09T00:52:03.028Z,2.10
2018-07-09T00:57:05.996Z,2.37
2018-07-09T01:02:09.216Z,1.80
2018-07-09T01:07:12.512Z,1.80
2018-07-09T01:12:15.732Z,2.93
2018-07-09T01:17:19.039Z,2.30
2018-07-09T01:22:22.253Z,2.33
2018-07-09T01:27:25.476Z,2.90
2018-07-09T01:32:28.676Z,2.20
2018-07-09T01:37:31.875Z,2.50
2018-07-09T01:42:35.162Z,1.90
2018-07-09T01:47:38.116Z,2.50
2018-07-09T01:52:41.224Z,2.10
2018-07-09T01:57:44.212Z,2.57
2018-07-09T02:02:47.535Z,2.80
2018-07-09T02:07:50.579Z,2.50
2018-07-09T02:12:53.727Z,2.60
2018-07-09T02:17:56.948Z,2.47
2018-07-09T02:22:59.926Z,2.60
2018-07-09T02:28:03.152Z,1.90
2018-07-09T02:33:06.163Z,3.10
2018-07-09T02:38:09.463Z,2.97
2018-07-09T02:43:12.571Z,3.07
2018-07-09T02:48:15.781Z,2.23
2018-07-09T02:53:18.728Z,2.37
2018-07-09T02:58:21.896Z,2.80
2018-07-09T03:03:25.107Z,2.83
2018-07-09T03:08:28.092Z,2.60
2018-07-09T03:13:31.236Z,2.73
2018-07-09T03:18:34.380Z,2.90
2018-07-09T03:23:37.628Z,3.30
2018-07-09T03:28:40.934Z,2.57
2018-07-09T03:33:44.139Z,2.57
2018-07-09T03:38:47.116Z,2.60
2018-07-09T03:43:50.388Z,3.00
2018-07-09T03:48:53.336Z,2.80
2018-07-09T03:53:56.299Z,3.27
2018-07-09T03:58:59.480Z,2.93
2018-07-09T04:04:02.522Z,2.90
2018-07-09T04:09:05.919Z,3.43
2018-07-09T04:14:08.960Z,3.00
2018-07-09T04:19:12.096Z,3.67
2018-07-09T04:24:15.099Z,3.43
2018-07-09T04:29:18.088Z,2.90
2018-07-09T04:34:21.055Z,2.40
2018-07-09T04:39:24.043Z,2.80
2018-07-09T04:44:27.228Z,2.90
2018-07-09T04:49:30.376Z,2.90
2018-07-09T04:54:33.544Z,2.43
2018-07-09T04:59:36.757Z,2.43
2018-07-09T05:04:39.959Z,2.43
2018-07-09T05:09:42.952Z,3.17
2018-07-09T05:14:46.167Z,2.33
2018-07-09T05:19:49.381Z,2.87
2018-07-09T05:24:52.384Z,2.70
2018-07-09T05:29:55.557Z,2.67
2018-07-09T05:34:58.800Z,2.23
2018-07-09T05:40:01.909Z,2.73
2018-07-09T05:45:05.536Z,2.40
2018-07-09T05:50:08.831Z,3.30
2018-07-09T05:55:11.967Z,2.77
2018-07-09T06:00:15.065Z,1.93
2018-07-09T06:05:18.047Z,2.43
2018-07-09T06:10:21.256Z,2.50
2018-07-09T06:15:24.471Z,2.27
2018-07-09T06:20:27.689Z,2.50
2018-07-09T06:25:30.859Z,2.23
2018-07-09T06:30:34.503Z,2.80
2018-07-09T06:35:37.837Z,2.47
2018-07-09T06:40:40.904Z,2.33
2018-07-09T06:45:44.175Z,2.50
2018-07-09T06:50:47.345Z,2.90
2018-07-09T06:55:50.388Z,3.53
2018-07-09T07:00:53.551Z,2.70
2018-07-09T07:05:56.760Z,2.77
2018-07-09T07:10:59.944Z,3.10
2018-07-09T07:16:02.967Z,2.60
2018-07-09T07:21:06.347Z,2.70
2018-07-09T07:26:09.598Z,2.60
2018-07-09T07:31:12.812Z,2.60
2018-07-09T07:36:15.956Z,2.90
2018-07-09T07:41:18.994Z,2.73
2018-07-09T07:46:22.114Z,2.87
2018-07-09T07:51:25.100Z,3.00
2018-07-09T07:56:28.143Z,2.30
2018-07-09T08:01:31.209Z,2.60
2018-07-09T08:06:34.292Z,3.20
2018-07-09T08:11:48.555Z,3.33
2018-07-09T08:16:40.428Z,2.97
2018-07-09T08:21:43.801Z,3.00
2018-07-09T08:26:46.816Z,3.20
2018-07-09T08:31:50.084Z,3.17
2018-07-09T08:36:53.031Z,3.40
2018-07-09T08:41:56.048Z,3.20
2018-07-09T08:46:59.152Z,3.33
2018-07-09T08:52:02.176Z,4.00
2018-07-09T08:57:05.234Z,3.40
2018-07-09T09:02:08.768Z,3.13
2018-07-09T09:07:11.876Z,3.07
2018-07-09T09:12:15.127Z,3.37
2018-07-09T09:17:18.443Z,3.10
2018-07-09T09:22:21.656Z,3.50
2018-07-09T09:27:24.682Z,3.60
2018-07-09T09:32:27.883Z,3.10
2018-07-09T09:37:31.020Z,3.40
2018-07-09T09:42:34.195Z,3.50
2018-07-09T09:47:37.245Z,3.77
2018-07-09T09:52:40.276Z,3.33
2018-07-09T09:57:43.392Z,3.53
2018-07-09T10:02:46.472Z,3.30
2018-07-09T10:07:49.499Z,3.40
2018-07-09T10:12:52.579Z,3.07
2018-07-09T10:17:56.223Z,4.30
2018-07-09T10:22:59.350Z,3.90
2018-07-09T10:28:02.271Z,3.23
2018-07-09T10:33:05.656Z,2.60
2018-07-09T10:38:08.855Z,3.13
2018-07-09T10:43:12.281Z,3.03
2018-07-09T10:48:15.338Z,2.63
2018-07-09T10:53:18.348Z,2.50
2018-07-09T10:58:21.492Z,3.00
2018-07-09T11:03:25.321Z,2.60
2018-07-09T11:08:28.331Z,2.33
2018-07-09T11:13:31.631Z,2.50
2018-07-09T11:18:34.947Z,3.00
2018-07-09T11:23:38.008Z,2.10
2018-07-09T11:28:41.407Z,2.37
2018-07-09T11:33:44.669Z,2.50
2018-07-09T11:38:47.783Z,2.87
2018-07-09T11:43:50.771Z,3.20
2018-07-09T11:48:53.952Z,2.70
2018-07-09T11:53:57.067Z,2.93
2018-07-09T11:59:00.299Z,3.40
2018-07-09T12:04:03.353Z,3.33
2018-07-09T12:09:06.558Z,3.37
2018-07-09T12:14:09.798Z,2.30
2018-07-09T12:19:13.136Z,3.43
2018-07-09T12:24:16.169Z,2.80
2018-07-09T12:29:19.239Z,2.80
2018-07-09T12:34:22.435Z,3.00
2018-07-09T12:39:25.459Z,2.63
2018-07-09T12:44:28.594Z,3.10
2018-07-09T12:49:31.615Z,2.50
2018-07-09T12:54:34.736Z,2.60
2018-07-09T12:59:37.989Z,3.37
2018-07-09T13:04:41.020Z,2.40
2018-07-09T13:09:44.018Z,2.17
2018-07-09T13:14:47.096Z,2.50
2018-07-09T13:19:50.545Z,2.67
2018-07-09T13:24:53.571Z,2.53
2018-07-09T13:29:57.068Z,2.73
2018-07-09T13:35:00.468Z,2.47
2018-07-09T13:40:03.828Z,2.40
2018-07-09T13:45:06.891Z,3.00
2018-07-09T13:50:10.075Z,2.93
2018-07-09T13:55:13.289Z,2.50
2018-07-09T14:00:16.429Z,2.57
2018-07-09T14:05:19.451Z,2.40
2018-07-09T14:10:22.435Z,2.10
2018-07-09T14:15:25.468Z,2.70
2018-07-09T14:20:31.358Z,2.80
2018-07-09T14:25:34.699Z,2.43
2018-07-09T14:30:37.811Z,2.33
2018-07-09T14:35:40.841Z,3.10
2018-07-09T14:40:43.858Z,3.23
2018-07-09T14:45:46.887Z,2.87
2018-07-09T14:50:49.916Z,3.33
2018-07-09T14:55:52.990Z,3.30
2018-07-09T15:00:56.141Z,3.57
2018-07-09T15:05:59.125Z,3.27
2018-07-09T15:11:02.264Z,3.00
2018-07-09T15:16:05.308Z,3.40
2018-07-09T15:21:08.342Z,3.33
2018-07-09T15:26:11.665Z,3.40
2018-07-09T15:31:14.660Z,2.90
2018-07-09T15:36:17.868Z,3.57
2018-07-09T15:41:20.916Z,3.27
2018-07-09T15:46:23.907Z,3.17
2018-07-09T15:51:26.924Z,3.20
2018-07-09T15:56:30.193Z,3.17
2018-07-09T16:01:33.399Z,3.10
2018-07-09T16:06:36.500Z,2.60
2018-07-09T16:11:39.539Z,3.50
2018-07-09T16:16:42.532Z,2.83
2018-07-09T16:21:45.610Z,3.43
2018-07-09T16:26:48.719Z,2.67
2018-07-09T16:31:52.044Z,2.10
2018-07-09T16:36:55.251Z,2.40
2018-07-09T16:41:58.473Z,2.13
2018-07-09T16:47:01.724Z,1.93
2018-07-09T16:52:04.833Z,1.93
2018-07-09T16:57:07.968Z,1.60
2018-07-09T17:02:11.204Z,1.90
2018-07-09T17:07:14.228Z,2.17
2018-07-09T17:12:17.512Z,1.60
2018-07-09T17:17:20.832Z,1.73
2018-07-09T17:22:24.231Z,2.20
2018-07-09T17:27:27.253Z,2.30
2018-07-09T17:32:30.237Z,1.70
2018-07-09T17:37:33.486Z,1.70
2018-07-09T17:42:36.580Z,1.80
2018-07-09T17:47:39.592Z,1.70
2018-07-09T17:52:42.622Z,1.70
2018-07-09T17:57:45.866Z,1.50
2018-07-09T18:02:49.063Z,1.70
2018-07-09T18:07:52.274Z,1.77
2018-07-09T18:12:55.539Z,2.03
2018-07-09T18:17:58.564Z,1.90
2018-07-09T18:23:01.820Z,2.00
2018-07-09T18:28:04.936Z,1.70
2018-07-09T18:33:08.272Z,2.40
2018-07-09T18:38:11.304Z,2.30
2018-07-09T18:43:14.549Z,2.07
2018-07-09T18:48:17.833Z,2.23
2018-07-09T18:53:20.880Z,2.13
2018-07-09T18:58:24.097Z,2.10
2018-07-09T19:03:27.148Z,2.63
2018-07-09T19:08:30.601Z,2.00
2018-07-09T19:13:34.004Z,2.47
2018-07-09T19:18:54.335Z,2.60
2018-07-09T19:23:56.195Z,2.60
2018-07-09T19:28:57.633Z,2.30
2018-07-09T19:33:59.282Z,2.00
2018-07-09T19:39:00.876Z,2.00
2018-07-09T19:44:02.336Z,2.20
2018-07-09T19:49:03.801Z,2.37
2018-07-09T19:54:05.405Z,2.47
2018-07-09T19:59:06.900Z,2.67
2018-07-09T20:04:08.667Z,2.10
2018-07-09T20:09:15.818Z,1.90
2018-07-09T20:14:23.178Z,2.70
2018-07-09T20:19:24.857Z,2.80
2018-07-09T20:24:26.495Z,2.63
2018-07-09T20:29:27.995Z,2.73
2018-07-09T20:34:29.649Z,2.83
2018-07-09T20:39:31.312Z,2.20
2018-07-09T20:44:32.760Z,2.80
2018-07-09T20:49:34.199Z,2.33
2018-07-09T20:54:35.829Z,3.27
2018-07-09T20:59:37.492Z,2.77
2018-07-09T21:04:38.964Z,2.83
2018-07-09T21:09:40.650Z,3.33
2018-07-09T21:14:42.328Z,2.87
2018-07-09T21:19:43.799Z,3.30
2018-07-09T21:24:45.232Z,2.77
2018-07-09T21:29:46.839Z,3.20
2018-07-09T21:34:48.321Z,3.87
2018-07-09T21:39:49.971Z,4.20
2018-07-09T21:44:51.395Z,3.80
2018-07-09T21:49:52.863Z,3.13
2018-07-09T21:54:54.389Z,3.37
2018-07-09T21:59:55.835Z,3.20
2018-07-09T22:04:57.428Z,3.00
2018-07-09T22:09:59.316Z,3.33
2018-07-09T22:15:00.747Z,3.40
2018-07-09T22:20:02.196Z,3.50
2018-07-09T22:25:04.401Z,3.60
2018-07-09T22:30:05.956Z,3.50
2018-07-09T22:35:09.281Z,4.20
2018-07-09T22:40:12.563Z,4.10
2018-07-09T22:45:15.481Z,3.73
2018-07-09T22:50:18.605Z,3.50
2018-07-09T22:55:38.815Z,3.10
2018-07-09T23:00:41.808Z,3.33
2018-07-09T23:05:45.559Z,3.70
2018-07-09T23:11:20.279Z,3.80
2018-07-09T23:16:50.203Z,3.50
2018-07-09T23:22:10.395Z,3.73
2018-07-09T23:27:11.816Z,5.07
2018-07-09T23:32:13.240Z,4.07
2018-07-09T23:37:14.926Z,4.00
2018-07-09T23:42:16.420Z,4.27
2018-07-09T23:47:17.964Z,3.60
2018-07-09T23:52:19.375Z,4.10
2018-07-09T23:59:49.717Z,3.90
